Time;durP1;ratioP1;P1;durP2;ratioP2;P2;SDS_P1;SDS_P2;PMS_P1;PMS_P2;Temp;Humidity;BMP_temperature;BMP_pressure;BME280_temperature;BME280_humidity;BME280_pressure;Samples;Min_cycle;Max_cycle;Signal;HPM_P1;HPM_P2
2021/09/04 00:01:01;;;;;;;6.20;3.80;;;;;;;16.89;nan;100583.13;5036614;28;20025;-73
2021/09/04 00:03:26;;;;;;;6.00;3.72;;;;;;;16.89;nan;100590.31;5012670;28;20082;-74
2021/09/04 00:05:51;;;;;;;6.63;3.92;;;;;;;16.84;nan;100593.56;5029808;28;20064;-74
2021/09/04 00:08:17;;;;;;;6.57;3.70;;;;;;;16.76;nan;100585.66;5011800;28;20033;-73
2021/09/04 00:10:42;;;;;;;5.47;3.50;;;;;;;16.68;nan;100581.25;5037973;28;20041;-73
2021/09/04 00:13:07;;;;;;;5.63;3.75;;;;;;;16.63;nan;100575.66;5029823;28;20046;-74
2021/09/04 00:15:32;;;;;;;5.05;3.50;;;;;;;16.63;nan;100572.16;5036917;28;20271;-74
2021/09/04 00:17:58;;;;;;;5.32;3.65;;;;;;;16.61;nan;100574.19;5012203;28;20108;-74
2021/09/04 00:20:23;;;;;;;7.63;3.83;;;;;;;16.64;nan;100577.34;5011194;28;20041;-74
2021/09/04 00:22:48;;;;;;;6.00;4.35;;;;;;;16.56;nan;100569.44;5029450;28;20509;-74
2021/09/04 00:25:14;;;;;;;5.47;3.67;;;;;;;16.46;nan;100580.41;5032926;28;20087;-74
2021/09/04 00:27:40;;;;;;;4.68;3.55;;;;;;;16.41;nan;100571.34;5011545;28;20037;-74
2021/09/04 00:30:06;;;;;;;6.47;3.60;;;;;;;16.37;nan;100575.38;5037157;28;20041;-73
2021/09/04 00:32:32;;;;;;;4.00;3.15;;;;;;;16.37;nan;100578.06;5031282;28;20048;-74
2021/09/04 00:34:57;;;;;;;5.38;3.50;;;;;;;16.37;nan;100575.38;5030904;28;20068;-74
2021/09/04 00:37:22;;;;;;;6.20;3.97;;;;;;;16.40;nan;100578.53;5011454;28;20481;-73
2021/09/04 00:39:47;;;;;;;4.80;3.50;;;;;;;16.35;nan;100579.09;5029405;28;20076;-73
2021/09/04 00:42:14;;;;;;;5.32;3.60;;;;;;;16.43;nan;100574.66;5010887;28;20540;-73
2021/09/04 00:44:39;;;;;;;5.18;3.45;;;;;;;16.43;nan;100574.66;5012155;28;20045;-74
2021/09/04 00:47:06;;;;;;;5.82;3.97;;;;;;;16.42;nan;100572.97;5029688;28;20045;-73
2021/09/04 00:49:34;;;;;;;5.88;4.07;;;;;;;16.38;nan;100574.38;5011564;28;20094;-73
2021/09/04 00:51:59;;;;;;;6.38;3.90;;;;;;;16.34;nan;100576.59;5036823;28;20032;-73
2021/09/04 00:54:25;;;;;;;5.25;3.72;;;;;;;16.33;nan;100574.94;5032124;28;20044;-73
2021/09/04 00:56:51;;;;;;;8.00;4.00;;;;;;;16.30;nan;100580.66;5031355;28;20030;-74
2021/09/04 00:59:16;;;;;;;6.43;3.90;;;;;;;16.39;nan;100584.84;5012708;28;20068;-73
2021/09/04 01:01:42;;;;;;;6.95;4.00;;;;;;;16.38;nan;100585.88;5029231;28;20030;-73
2021/09/04 01:04:08;;;;;;;8.35;4.15;;;;;;;16.39;nan;100578.69;5029945;28;20033;-73
2021/09/04 01:06:34;;;;;;;6.05;4.15;;;;;;;16.32;nan;100574.09;5012176;28;20049;-73
2021/09/04 01:09:00;;;;;;;8.50;4.38;;;;;;;16.33;nan;100572.28;5029321;28;20073;-73
2021/09/04 01:11:25;;;;;;;6.28;4.28;;;;;;;16.34;nan;100574.75;5012003;28;20559;-74
2021/09/04 01:13:50;;;;;;;5.47;3.80;;;;;;;16.28;nan;100574.66;5033305;28;20033;-73
2021/09/04 01:16:16;;;;;;;4.88;3.78;;;;;;;16.26;nan;100580.22;5030548;28;20037;-74
2021/09/04 01:18:41;;;;;;;5.53;3.70;;;;;;;16.32;nan;100575.94;5010674;28;20029;-74
2021/09/04 01:21:08;;;;;;;6.47;4.10;;;;;;;16.25;nan;100567.03;5011553;28;20053;-74
2021/09/04 01:23:34;;;;;;;5.35;4.00;;;;;;;16.24;nan;100576.91;5028888;28;20052;-74
2021/09/04 01:26:07;;;;;;;5.28;4.07;;;;;;;16.14;nan;100568.38;5029263;28;20033;-74
2021/09/04 01:28:33;;;;;;;6.85;3.88;;;;;;;16.21;nan;100569.28;5010901;28;20037;-74
2021/09/04 01:30:58;;;;;;;5.78;4.00;;;;;;;16.21;nan;100565.75;5011868;28;20173;-74
2021/09/04 01:33:24;;;;;;;5.35;3.95;;;;;;;16.11;nan;100566.91;5032701;28;20056;-74
2021/09/04 01:35:49;;;;;;;7.47;4.18;;;;;;;16.09;nan;100563.59;5036194;28;20041;-74
2021/09/04 01:38:15;;;;;;;5.43;3.53;;;;;;;16.12;nan;100575.72;5036937;28;20447;-74
2021/09/04 01:40:40;;;;;;;5.80;3.97;;;;;;;16.03;nan;100563.50;5034873;28;20034;-74
2021/09/04 01:43:05;;;;;;;4.97;3.60;;;;;;;16.01;nan;100565.53;5033303;28;20034;-74
2021/09/04 01:45:31;;;;;;;4.85;3.63;;;;;;;15.97;nan;100561.56;5033550;28;20056;-74
2021/09/04 01:47:56;;;;;;;5.38;4.00;;;;;;;15.93;nan;100558.47;5017070;28;20075;-74
2021/09/04 01:50:22;;;;;;;6.63;4.00;;;;;;;15.91;nan;100565.81;5032259;28;20079;-74
2021/09/04 01:52:47;;;;;;;6.03;4.25;;;;;;;15.87;nan;100564.53;5032355;28;20034;-74
2021/09/04 01:55:16;;;;;;;6.22;4.50;;;;;;;15.79;nan;100568.13;5033443;28;20030;-74
2021/09/04 01:57:41;;;;;;;6.60;4.60;;;;;;;15.72;nan;100567.22;5032687;28;20037;-74
2021/09/04 02:00:09;;;;;;;6.43;5.00;;;;;;;15.74;nan;100564.38;5032338;28;20037;-74
2021/09/04 02:02:35;;;;;;;6.35;4.43;;;;;;;15.70;nan;100562.06;5014581;28;20490;-74
2021/09/04 02:05:00;;;;;;;7.43;4.78;;;;;;;15.64;nan;100556.63;5032294;28;20039;-74
2021/09/04 02:07:26;;;;;;;7.30;4.80;;;;;;;15.63;nan;100555.78;5034974;28;20029;-73
2021/09/04 02:09:51;;;;;;;6.93;5.20;;;;;;;15.61;nan;100555.16;5052854;28;20181;-74
2021/09/04 02:12:16;;;;;;;6.53;4.80;;;;;;;15.60;nan;100550.00;5034634;28;20051;-74
2021/09/04 02:14:42;;;;;;;7.85;5.05;;;;;;;15.62;nan;100550.66;5036227;28;20030;-74
2021/09/04 02:17:07;;;;;;;5.88;4.60;;;;;;;15.60;nan;100544.66;5022586;28;20029;-74
2021/09/04 02:19:33;;;;;;;6.53;4.50;;;;;;;15.62;nan;100542.66;5014952;28;20085;-74
2021/09/04 02:21:58;;;;;;;6.30;4.63;;;;;;;15.61;nan;100547.16;5014722;28;20594;-74
2021/09/04 02:24:23;;;;;;;6.82;4.90;;;;;;;15.62;nan;100539.97;5031173;28;20025;-74
2021/09/04 02:26:49;;;;;;;6.82;5.28;;;;;;;15.61;nan;100541.84;5026204;28;20125;-74
2021/09/04 02:29:14;;;;;;;6.88;4.80;;;;;;;15.58;nan;100550.16;5018710;28;20042;-74
2021/09/04 02:31:39;;;;;;;6.72;4.78;;;;;;;15.57;nan;100539.72;5028871;28;20044;-74
2021/09/04 02:34:05;;;;;;;6.28;5.03;;;;;;;15.66;nan;100534.09;5016402;28;20064;-73
2021/09/04 02:36:30;;;;;;;6.47;4.75;;;;;;;15.64;nan;100538.78;5029781;28;20280;-73
2021/09/04 02:38:55;;;;;;;6.93;4.95;;;;;;;15.60;nan;100540.16;5027845;28;20064;-74
2021/09/04 02:41:21;;;;;;;6.85;4.97;;;;;;;15.60;nan;100534.00;5035824;28;20036;-74
2021/09/04 02:43:46;;;;;;;6.22;4.80;;;;;;;15.63;nan;100537.13;5032489;28;20069;-74
2021/09/04 02:46:11;;;;;;;7.00;4.53;;;;;;;15.61;nan;100531.16;5030554;28;20061;-74
2021/09/04 02:48:37;;;;;;;7.53;5.18;;;;;;;15.70;nan;100534.56;5032006;28;20580;-74
2021/09/04 02:51:02;;;;;;;6.50;4.65;;;;;;;15.67;nan;100529.59;5031210;28;20033;-74
2021/09/04 02:53:28;;;;;;;6.30;4.50;;;;;;;15.61;nan;100530.31;5031229;28;20033;-74
2021/09/04 02:55:53;;;;;;;6.45;4.95;;;;;;;15.53;nan;100536.56;5031420;28;20029;-74
2021/09/04 02:58:18;;;;;;;6.13;4.50;;;;;;;15.50;nan;100532.44;5033463;28;20389;-74
2021/09/04 03:00:44;;;;;;;7.10;4.88;;;;;;;15.51;nan;100534.09;5030172;28;20037;-74
2021/09/04 03:03:09;;;;;;;6.25;4.38;;;;;;;15.53;nan;100528.56;5030596;28;20040;-74
2021/09/04 03:05:35;;;;;;;6.55;4.68;;;;;;;15.58;nan;100526.19;5012743;28;20029;-74
2021/09/04 03:08:01;;;;;;;7.35;4.60;;;;;;;15.60;nan;100523.34;5029832;28;20625;-74
2021/09/04 03:10:26;;;;;;;6.75;5.00;;;;;;;15.54;nan;100532.06;5030745;28;20075;-74
2021/09/04 03:12:52;;;;;;;6.07;4.65;;;;;;;15.48;nan;100531.78;5030698;28;20498;-74
2021/09/04 03:15:17;;;;;;;5.85;4.50;;;;;;;15.43;nan;100539.50;5030741;28;20406;-74
2021/09/04 03:17:43;;;;;;;5.47;4.00;;;;;;;15.40;nan;100533.75;5030231;28;20040;-74
2021/09/04 03:20:09;;;;;;;6.68;5.22;;;;;;;15.34;nan;100535.28;5028259;28;20037;-74
2021/09/04 03:22:35;;;;;;;7.70;4.80;;;;;;;15.22;nan;100534.91;5033069;28;20044;-74
2021/09/04 03:25:02;;;;;;;6.40;4.93;;;;;;;15.08;nan;100536.53;5033051;28;20517;-74
2021/09/04 03:27:28;;;;;;;7.93;5.15;;;;;;;14.97;nan;100536.13;5030077;28;20029;-74
2021/09/04 03:29:53;;;;;;;7.43;4.90;;;;;;;14.90;nan;100543.19;5012172;28;20052;-74
2021/09/04 03:32:19;;;;;;;6.95;4.90;;;;;;;14.77;nan;100551.78;5029739;28;20124;-74
2021/09/04 03:34:44;;;;;;;6.15;4.45;;;;;;;14.74;nan;100542.31;5034986;28;20182;-74
2021/09/04 03:37:09;;;;;;;6.32;4.75;;;;;;;14.68;nan;100548.34;5029708;28;20049;-74
2021/09/04 03:39:35;;;;;;;5.88;4.78;;;;;;;14.63;nan;100553.38;5029539;28;20064;-74
2021/09/04 03:42:00;;;;;;;6.75;4.90;;;;;;;14.56;nan;100549.78;5012414;28;20037;-74
2021/09/04 03:44:25;;;;;;;6.50;4.60;;;;;;;14.57;nan;100557.59;5029637;28;20044;-74
2021/09/04 03:46:50;;;;;;;6.00;4.50;;;;;;;14.45;nan;100553.66;5030305;28;20181;-74
2021/09/04 03:49:16;;;;;;;5.15;3.97;;;;;;;14.38;nan;100558.84;5030795;28;20515;-74
2021/09/04 03:51:42;;;;;;;6.10;4.15;;;;;;;14.32;nan;100558.72;5012298;28;20090;-75
2021/09/04 03:54:07;;;;;;;5.05;3.72;;;;;;;14.30;nan;100564.22;5028488;28;20603;-74
2021/09/04 03:56:33;;;;;;;5.80;4.15;;;;;;;14.25;nan;100558.56;5012114;28;20399;-74
2021/09/04 03:58:58;;;;;;;6.47;4.43;;;;;;;14.19;nan;100565.44;5011296;28;20041;-74
2021/09/04 04:01:23;;;;;;;8.07;5.40;;;;;;;14.13;nan;100555.47;5028964;28;20059;-74
2021/09/04 04:03:48;;;;;;;5.80;4.60;;;;;;;14.12;nan;100561.81;5029505;28;20076;-74
2021/09/04 04:06:14;;;;;;;6.65;4.40;;;;;;;14.13;nan;100557.31;5017036;28;20124;-73
2021/09/04 04:08:39;;;;;;;6.28;4.40;;;;;;;14.13;nan;100559.97;5033821;28;20045;-73
2021/09/04 04:11:06;;;;;;;7.28;4.95;;;;;;;14.01;nan;100554.22;5038799;28;20045;-72
2021/09/04 04:13:32;;;;;;;8.15;5.45;;;;;;;13.90;nan;100551.97;5014657;28;20045;-72
2021/09/04 04:15:57;;;;;;;8.27;6.00;;;;;;;13.79;nan;100555.81;5035709;28;20101;-72
2021/09/04 04:18:22;;;;;;;6.75;5.10;;;;;;;13.72;nan;100555.66;5031926;28;20029;-72
2021/09/04 04:20:48;;;;;;;6.80;5.20;;;;;;;13.65;nan;100549.38;5016793;28;20397;-72
2021/09/04 04:23:13;;;;;;;9.85;6.05;;;;;;;13.52;nan;100552.59;5023202;28;20043;-72
2021/09/04 04:25:38;;;;;;;7.75;6.00;;;;;;;13.48;nan;100553.91;5037193;28;20156;-72
2021/09/04 04:28:04;;;;;;;7.22;5.63;;;;;;;13.44;nan;100557.06;5033465;28;20040;-73
2021/09/04 04:30:29;;;;;;;7.72;5.60;;;;;;;13.41;nan;100554.78;5030896;28;20044;-72
2021/09/04 04:32:54;;;;;;;8.77;6.10;;;;;;;13.32;nan;100551.28;5019077;28;20037;-72
2021/09/04 04:35:20;;;;;;;7.45;5.72;;;;;;;13.27;nan;100556.25;5014303;28;20049;-72
2021/09/04 04:37:45;;;;;;;7.70;5.97;;;;;;;13.20;nan;100542.00;5032131;28;20042;-72
2021/09/04 04:40:11;;;;;;;8.43;6.22;;;;;;;13.22;nan;100551.44;5038074;28;20033;-72
2021/09/04 04:42:36;;;;;;;7.45;6.10;;;;;;;13.20;nan;100542.81;5023260;28;20476;-73
2021/09/04 04:45:02;;;;;;;8.75;6.25;;;;;;;13.17;nan;100541.31;5032486;28;20052;-73
2021/09/04 04:47:28;;;;;;;8.05;5.90;;;;;;;13.14;nan;100544.31;5015015;28;20087;-73
2021/09/04 04:49:53;;;;;;;7.60;6.10;;;;;;;13.13;nan;100550.66;5031360;28;20433;-73
2021/09/04 04:52:18;;;;;;;7.82;5.82;;;;;;;13.12;nan;100548.16;5031556;28;20528;-73
2021/09/04 04:54:43;;;;;;;7.93;5.80;;;;;;;13.09;nan;100557.28;5031931;28;20490;-73
2021/09/04 04:57:09;;;;;;;8.05;5.90;;;;;;;13.07;nan;100551.31;5031787;28;20061;-72
2021/09/04 04:59:34;;;;;;;7.60;6.20;;;;;;;13.07;nan;100553.13;5039598;28;20107;-73
2021/09/04 05:01:59;;;;;;;7.88;6.28;;;;;;;13.07;nan;100553.13;5031699;28;20065;-73
2021/09/04 05:04:25;;;;;;;8.95;6.25;;;;;;;13.09;nan;100559.13;5030372;28;20038;-73
2021/09/04 05:06:50;;;;;;;8.27;6.20;;;;;;;13.05;nan;100558.59;5018921;28;20044;-73
2021/09/04 05:09:15;;;;;;;9.05;6.65;;;;;;;13.06;nan;100554.13;5032886;28;20092;-73
2021/09/04 05:11:41;;;;;;;9.45;6.60;;;;;;;13.07;nan;100563.75;5023882;28;20074;-73
2021/09/04 05:14:06;;;;;;;8.82;6.55;;;;;;;13.11;nan;100559.78;5017263;28;20112;-73
2021/09/04 05:16:31;;;;;;;8.32;6.35;;;;;;;13.11;nan;100559.78;5035696;28;20033;-73
2021/09/04 05:18:56;;;;;;;12.68;6.95;;;;;;;13.10;nan;100564.22;5015599;28;20037;-73
2021/09/04 05:21:22;;;;;;;9.27;6.40;;;;;;;13.19;nan;100551.78;5039276;28;20060;-72
2021/09/04 05:23:47;;;;;;;8.50;6.50;;;;;;;13.29;nan;100557.78;5037416;28;20040;-73
2021/09/04 05:26:13;;;;;;;8.98;5.65;;;;;;;13.38;nan;100554.09;5034945;28;20446;-73
2021/09/04 05:28:39;;;;;;;7.13;5.22;;;;;;;13.48;nan;100553.91;5017565;28;20041;-73
2021/09/04 05:31:04;;;;;;;6.57;4.78;;;;;;;13.69;nan;100549.88;5035354;28;20508;-73
2021/09/04 05:33:30;;;;;;;5.80;4.47;;;;;;;13.98;nan;100551.91;5025048;28;20416;-73
2021/09/04 05:35:55;;;;;;;8.13;4.78;;;;;;;14.24;nan;100541.78;5033838;28;20044;-73
2021/09/04 05:38:21;;;;;;;7.03;5.20;;;;;;;14.67;nan;100549.38;5034333;28;20030;-74
2021/09/04 05:40:46;;;;;;;6.28;4.57;;;;;;;14.96;nan;100550.47;5039319;28;20037;-73
2021/09/04 05:43:11;;;;;;;5.03;3.88;;;;;;;15.41;nan;100552.19;5020578;28;20045;-73
2021/09/04 05:45:37;;;;;;;6.17;4.27;;;;;;;15.91;nan;100547.97;5033997;28;20094;-73
2021/09/04 05:48:02;;;;;;;5.20;3.97;;;;;;;16.32;nan;100557.28;5017667;28;20474;-74
2021/09/04 05:50:27;;;;;;;5.25;3.90;;;;;;;16.67;nan;100558.25;5034779;28;20212;-73
2021/09/04 05:52:53;;;;;;;5.55;3.83;;;;;;;17.07;nan;100558.63;5035235;28;20525;-73
2021/09/04 05:55:18;;;;;;;6.80;3.90;;;;;;;17.44;nan;100558.47;5019511;28;20556;-73
2021/09/04 05:57:43;;;;;;;5.32;3.47;;;;;;;17.85;nan;100557.69;5033637;28;20471;-73
2021/09/04 06:00:09;;;;;;;6.75;4.03;;;;;;;18.10;nan;100558.84;5016445;28;20057;-73
2021/09/04 06:02:35;;;;;;;5.43;3.30;;;;;;;18.47;nan;100553.97;5035031;28;20033;-73
2021/09/04 06:05:00;;;;;;;6.85;3.60;;;;;;;18.76;nan;100560.88;5034553;28;20033;-73
2021/09/04 06:07:25;;;;;;;5.90;3.53;;;;;;;19.16;nan;100563.53;5037954;28;20064;-73
2021/09/04 06:09:50;;;;;;;5.43;3.50;;;;;;;19.53;nan;100564.75;5034849;28;20065;-72
2021/09/04 06:12:16;;;;;;;5.50;4.10;;;;;;;19.68;nan;100558.34;5033868;28;20490;-73
2021/09/04 06:14:41;;;;;;;4.68;3.10;;;;;;;20.05;nan;100566.69;5017167;28;20441;-73
2021/09/04 06:17:07;;;;;;;4.25;3.03;;;;;;;20.58;nan;100567.22;5033809;28;20564;-73
2021/09/04 06:19:32;;;;;;;4.80;3.40;;;;;;;20.87;nan;100558.75;5033339;28;20044;-74
2021/09/04 06:21:57;;;;;;;4.55;3.65;;;;;;;21.09;nan;100569.94;5016203;28;20042;-74
2021/09/04 06:24:23;;;;;;;4.80;3.67;;;;;;;21.22;nan;100567.16;5014673;28;20193;-74
2021/09/04 06:26:48;;;;;;;7.10;5.05;;;;;;;21.30;nan;100571.44;5033773;28;20457;-73
2021/09/04 06:29:13;;;;;;;6.63;4.63;;;;;;;21.24;nan;100569.59;5033943;28;20052;-74
2021/09/04 06:31:39;;;;;;;8.40;4.65;;;;;;;21.11;nan;100570.56;5034530;28;20091;-73
2021/09/04 06:34:04;;;;;;;6.32;4.55;;;;;;;21.33;nan;100579.91;5022891;28;20033;-74
2021/09/04 06:36:29;;;;;;;7.15;4.88;;;;;;;21.57;nan;100580.06;5032953;28;20029;-73
2021/09/04 06:38:55;;;;;;;8.02;5.57;;;;;;;21.07;nan;100574.72;5043122;28;20033;-74
2021/09/04 06:41:20;;;;;;;8.05;5.55;;;;;;;20.60;nan;100575.09;5034610;28;20096;-75
2021/09/04 06:43:45;;;;;;;6.80;5.40;;;;;;;20.74;nan;100575.81;4999983;28;20041;-73
2021/09/04 06:46:11;;;;;;;7.60;5.20;;;;;;;21.17;nan;100578.56;5033192;28;20045;-74
2021/09/04 06:48:36;;;;;;;7.68;5.68;;;;;;;21.10;nan;100575.13;5035309;28;20069;-73
2021/09/04 06:51:01;;;;;;;6.07;4.80;;;;;;;21.44;nan;100588.28;5033477;28;20120;-73
2021/09/04 06:53:27;;;;;;;5.97;4.60;;;;;;;21.48;nan;100586.81;5016257;28;20064;-74
2021/09/04 06:55:52;;;;;;;8.05;5.60;;;;;;;21.61;nan;100583.97;5033008;28;20048;-73
2021/09/04 06:58:20;;;;;;;7.50;5.40;;;;;;;21.81;nan;100583.78;5033289;28;20066;-74
2021/09/04 07:00:45;;;;;;;6.35;4.43;;;;;;;22.15;nan;100579.63;5033591;28;20124;-74
2021/09/04 07:03:11;;;;;;;6.60;5.15;;;;;;;22.71;nan;100582.19;5033668;28;20057;-74
2021/09/04 07:05:36;;;;;;;7.15;4.40;;;;;;;22.94;nan;100581.44;5042649;28;20047;-74
2021/09/04 07:08:02;;;;;;;6.80;4.80;;;;;;;23.32;nan;100584.53;5017283;28;20120;-74
2021/09/04 07:10:27;;;;;;;5.57;4.50;;;;;;;23.69;nan;100591.53;5035018;28;20030;-74
2021/09/04 07:12:52;;;;;;;6.20;4.97;;;;;;;23.88;nan;100587.69;5033612;28;20387;-73
2021/09/04 07:15:18;;;;;;;7.30;4.47;;;;;;;23.91;nan;100594.47;5037773;28;20461;-74
2021/09/04 07:17:43;;;;;;;6.30;4.60;;;;;;;23.89;nan;100594.72;5033021;28;20041;-74
2021/09/04 07:20:09;;;;;;;6.05;3.90;;;;;;;24.25;nan;100591.91;5013938;28;20037;-74
2021/09/04 07:22:34;;;;;;;6.70;4.18;;;;;;;24.87;nan;100593.88;5014566;28;20037;-74
2021/09/04 07:25:00;;;;;;;6.97;4.53;;;;;;;25.33;nan;100597.31;5015072;28;20504;-74
2021/09/04 07:27:25;;;;;;;5.50;4.22;;;;;;;25.48;nan;100592.13;5015633;28;20040;-74
2021/09/04 07:29:50;;;;;;;5.30;3.88;;;;;;;25.89;nan;100598.13;5033105;28;20267;-74
2021/09/04 07:32:16;;;;;;;5.00;4.05;;;;;;;26.11;nan;100591.88;5024042;28;20078;-74
2021/09/04 07:34:41;;;;;;;5.00;3.70;;;;;;;25.93;nan;100599.25;5015667;28;20036;-74
2021/09/04 07:37:06;;;;;;;7.05;4.28;;;;;;;25.96;nan;100601.47;5015839;28;20041;-74
2021/09/04 07:39:32;;;;;;;6.18;3.08;;;;;;;26.33;nan;100598.06;5032176;28;20147;-75
2021/09/04 07:41:57;;;;;;;4.55;3.72;;;;;;;26.80;nan;100610.25;5031013;28;20049;-74
2021/09/04 07:44:22;;;;;;;5.43;3.80;;;;;;;27.32;nan;100613.13;5029790;28;20438;-75
2021/09/04 07:46:48;;;;;;;7.78;4.68;;;;;;;27.73;nan;100609.84;5014246;28;20141;-75
2021/09/04 07:49:13;;;;;;;5.90;4.50;;;;;;;27.81;nan;100617.47;5014731;28;20041;-75
2021/09/04 07:51:39;;;;;;;4.72;3.85;;;;;;;28.22;nan;100616.84;5010880;28;20421;-75
2021/09/04 07:54:05;;;;;;;6.97;4.85;;;;;;;28.50;nan;100613.69;5011658;28;20045;-75
2021/09/04 07:56:30;;;;;;;5.32;4.20;;;;;;;28.44;nan;100611.22;5012647;28;20044;-75
2021/09/04 07:58:55;;;;;;;6.22;4.57;;;;;;;27.77;nan;100605.50;5030027;28;20037;-75
2021/09/04 08:01:21;;;;;;;;;;;;;;;28.34;nan;100607.38;5011949;28;20106;-75
2021/09/04 08:03:46;;;;;;;5.73;4.50;;;;;;;28.42;nan;100613.38;5029660;28;20270;-75
2021/09/04 08:06:11;;;;;;;5.03;3.88;;;;;;;28.19;nan;100612.75;5029348;28;20521;-75
2021/09/04 08:08:37;;;;;;;9.65;5.15;;;;;;;28.94;nan;100609.66;5029392;28;20037;-75
2021/09/04 08:11:02;;;;;;;5.97;4.30;;;;;;;28.95;nan;100612.09;5036114;28;20389;-75
2021/09/04 08:13:28;;;;;;;5.65;4.30;;;;;;;29.37;nan;100615.66;5031472;28;20053;-75
2021/09/04 08:15:53;;;;;;;4.80;4.10;;;;;;;29.18;nan;100616.19;5032895;28;20499;-75
2021/09/04 08:18:18;;;;;;;5.45;4.20;;;;;;;29.73;nan;100626.47;5029035;28;20044;-75
2021/09/04 08:20:44;;;;;;;5.25;4.10;;;;;;;28.77;nan;100631.66;5011379;28;20049;-75
2021/09/04 08:23:09;;;;;;;6.65;5.32;;;;;;;29.64;nan;100634.38;5012136;28;20040;-75
2021/09/04 08:25:36;;;;;;;6.10;5.18;;;;;;;29.80;nan;100630.53;5029379;28;20083;-75
2021/09/04 08:28:06;;;;;;;7.35;4.68;;;;;;;29.84;nan;100630.78;5011181;28;20033;-75
2021/09/04 08:30:32;;;;;;;10.32;6.15;;;;;;;30.26;nan;100633.09;5011286;28;20036;-76
2021/09/04 08:32:57;;;;;;;;;;;;;;;30.33;nan;100627.34;5034967;28;20032;-75
2021/09/04 08:35:22;;;;;;;;;;;;;;;30.02;nan;100622.00;5033041;28;20003;-75
2021/09/04 08:37:50;;;;;;;7.20;5.00;;;;;;;29.72;nan;100619.38;5029090;28;20304;-76
2021/09/04 08:40:15;;;;;;;5.35;4.50;;;;;;;29.62;nan;100615.56;5011111;28;20033;-75
2021/09/04 08:42:40;;;;;;;7.32;5.10;;;;;;;29.37;nan;100624.63;5029453;28;20029;-75
2021/09/04 08:45:06;;;;;;;;;;;;;;;29.89;nan;100627.22;5029834;28;20029;-76
2021/09/04 08:47:31;;;;;;;;;;;;;;;30.51;nan;100636.78;5031316;28;19924;-76
2021/09/04 08:49:56;;;;;;;;;;;;;;;31.23;nan;100645.28;5016632;28;19974;-76
2021/09/04 08:52:22;;;;;;;;;;;;;;;32.03;nan;100634.88;5037381;28;19967;-76
2021/09/04 08:54:47;;;;;;;;;;;;;;;32.17;nan;100638.53;5012401;28;19913;-76
2021/09/04 08:57:13;;;;;;;6.72;4.50;;;;;;;32.44;nan;100637.06;5030494;28;20382;-76
2021/09/04 08:59:38;;;;;;;;;;;;;;;32.03;nan;100635.69;5041350;28;20099;-76
2021/09/04 09:02:10;;;;;;;;;;;;;;;32.35;nan;100635.00;5042776;28;20028;-75
2021/09/04 09:04:35;;;;;;;5.85;4.47;;;;;;;32.76;nan;100636.34;5029271;28;19920;-76
2021/09/04 09:07:01;;;;;;;6.05;4.20;;;;;;;33.08;nan;100634.75;5029460;28;20037;-75
2021/09/04 09:09:26;;;;;;;;;;;;;;;33.09;nan;100630.94;5033185;28;20041;-76
2021/09/04 09:11:53;;;;;;;4.93;4.07;;;;;;;33.11;nan;100634.16;5011704;28;19913;-77
2021/09/04 09:14:20;;;;;;;3.80;3.10;;;;;;;33.78;nan;100625.53;5037208;28;20397;-76
2021/09/04 09:16:52;;;;;;;5.30;3.90;;;;;;;33.80;nan;100620.53;5038441;28;20105;-76
2021/09/04 09:19:25;;;;;;;6.95;4.53;;;;;;;34.03;nan;100629.69;5026134;28;20057;-76
2021/09/04 09:21:50;;;;;;;4.03;3.50;;;;;;;34.37;nan;100625.66;5028844;28;20411;-76
2021/09/04 09:24:19;;;;;;;5.05;4.05;;;;;;;33.67;nan;100619.44;5029125;28;20029;-76
2021/09/04 09:26:48;;;;;;;5.00;3.90;;;;;;;33.04;nan;100614.53;5021215;28;20322;-77
2021/09/04 09:29:34;;;;;;;5.13;3.85;;;;;;;32.05;nan;100617.06;5028810;28;20076;-76
2021/09/04 09:32:08;;;;;;;5.95;4.80;;;;;;;31.94;nan;100619.13;5010727;28;20394;-76
2021/09/04 09:34:44;;;;;;;5.30;4.28;;;;;;;31.58;nan;100609.69;5016595;28;20117;-76
2021/09/04 09:37:11;;;;;;;6.10;4.13;;;;;;;30.82;nan;100611.97;5028271;28;20037;-76
2021/09/04 09:39:42;;;;;;;7.95;4.97;;;;;;;30.34;nan;100606.31;5028555;28;20038;-75
2021/09/04 09:42:10;;;;;;;4.90;4.00;;;;;;;30.16;nan;100619.50;5028199;28;20037;-75
2021/09/04 09:44:37;;;;;;;5.45;3.80;;;;;;;29.91;nan;100609.50;5019656;28;20045;-75
2021/09/04 09:47:12;;;;;;;4.57;3.22;;;;;;;29.70;nan;100611.50;5028960;28;20125;-75
2021/09/04 09:49:41;;;;;;;5.70;4.20;;;;;;;29.96;nan;100614.13;5015977;28;20049;-73
2021/09/04 09:52:08;;;;;;;8.32;5.28;;;;;;;30.24;nan;100615.34;5012684;28;20048;-73
2021/09/04 09:54:35;;;;;;;6.03;4.80;;;;;;;30.12;nan;100606.69;5012132;28;20041;-74
2021/09/04 09:57:03;;;;;;;5.35;4.47;;;;;;;29.74;nan;100600.84;5031129;28;20343;-74
2021/09/04 09:59:29;;;;;;;7.32;5.45;;;;;;;29.97;nan;100608.38;5015511;28;20033;-74
2021/09/04 10:01:56;;;;;;;7.50;6.07;;;;;;;29.58;nan;100598.16;5016130;28;20034;-74
2021/09/04 10:04:26;;;;;;;5.40;4.43;;;;;;;28.78;nan;100600.66;5016131;28;20040;-76
2021/09/04 10:06:53;;;;;;;5.68;4.45;;;;;;;28.61;nan;100603.66;5059210;22;20442;-74
2021/09/04 10:09:19;;;;;;;7.57;5.82;;;;;;;28.66;nan;100594.69;5053703;28;20531;-74
2021/09/04 10:11:45;;;;;;;6.22;4.05;;;;;;;28.13;nan;100590.19;5036848;28;20037;-74
2021/09/04 10:14:11;;;;;;;4.57;3.35;;;;;;;27.78;nan;100585.41;5059168;28;20509;-74
2021/09/04 10:16:37;;;;;;;7.88;5.18;;;;;;;28.09;nan;100591.78;5042686;28;20033;-74
2021/09/04 10:19:03;;;;;;;6.63;5.18;;;;;;;28.52;nan;100584.31;5037701;28;20409;-74
2021/09/04 10:21:37;;;;;;;6.18;4.32;;;;;;;28.13;nan;100582.03;5045587;28;20037;-74
2021/09/04 10:24:03;;;;;;;7.43;4.65;;;;;;;28.30;nan;100581.00;5044863;28;20041;-74
2021/09/04 10:26:28;;;;;;;6.15;5.10;;;;;;;28.12;nan;100585.81;5022817;28;20227;-74
2021/09/04 10:29:16;;;;;;;7.65;4.95;;;;;;;28.24;nan;100579.34;5034134;28;20041;-74
2021/09/04 10:32:03;;;;;;;6.32;4.88;;;;;;;28.32;nan;100576.91;5034768;28;20041;-74
2021/09/04 10:34:40;;;;;;;4.95;4.10;;;;;;;28.24;nan;100576.59;5034106;28;20029;-74
2021/09/04 10:37:13;;;;;;;8.15;4.85;;;;;;;27.67;nan;100581.00;5034967;28;20486;-74
2021/09/04 10:40:03;;;;;;;6.03;4.22;;;;;;;27.40;nan;100568.38;5034647;28;20057;-74
2021/09/04 10:42:32;;;;;;;6.13;4.60;;;;;;;27.40;nan;100567.56;5037440;28;20040;-74
2021/09/04 10:45:11;;;;;;;;;;;;;;;27.28;nan;100568.56;5034039;28;20048;-74
2021/09/04 10:47:42;;;;;;;;;;;;;;;27.35;nan;100562.91;5043817;28;19920;-74
2021/09/04 10:50:15;;;;;;;;;;;;;;;26.96;nan;100551.47;5034520;28;20347;-74
2021/09/04 10:52:50;;;;;;;;;;;;;;;26.90;nan;100551.44;5043535;28;20364;-73
2021/09/04 10:55:18;;;;;;;;;;;;;;;26.88;nan;100550.06;5031280;28;20412;-74
2021/09/04 10:57:48;;;;;;;;;;;;;;;26.75;nan;100542.38;5015747;28;19924;-73
2021/09/04 11:00:17;;;;;;;;;;;;;;;26.86;nan;100539.50;5037707;28;20007;-73
2021/09/04 11:02:43;;;;;;;;;;;;;;;26.79;nan;100538.88;5034364;28;19913;-74
2021/09/04 11:05:24;;;;;;;;;;;;;;;26.79;nan;100532.63;5041476;28;19917;-73
2021/09/04 11:08:02;;;;;;;;;;;;;;;26.63;nan;100540.66;5033249;28;19963;-73
2021/09/04 11:10:28;;;;;;;;;;;;;;;26.79;nan;100535.34;5041920;28;20276;-73
2021/09/04 11:13:11;;;;;;;;;;;;;;;26.66;nan;100542.84;5038838;28;19939;-73
2021/09/04 11:15:37;;;;;;;;;;;;;;;26.58;nan;100539.81;5034598;28;19925;-74
2021/09/04 11:18:02;;;;;;;;;;;;;;;26.57;nan;100538.97;5039654;28;19919;-74
2021/09/04 11:20:28;;;;;;;;;;;;;;;26.62;nan;100530.06;5043535;28;19939;-74
2021/09/04 11:22:53;;;;;;;;;;;;;;;26.84;nan;100525.38;5033649;28;20000;-74
2021/09/04 11:25:21;;;;;;;;;;;;;;;26.92;nan;100534.91;5040336;28;19923;-74
2021/09/04 11:27:47;;;;;;;;;;;;;;;26.88;nan;100523.75;5029103;28;20596;-74
2021/09/04 11:30:16;;;;;;;;;;;;;;;27.10;nan;100520.09;5037432;28;19917;-75
2021/09/04 11:32:41;;;;;;;;;;;;;;;27.13;nan;100525.00;5039083;28;19916;-74
2021/09/04 11:35:07;;;;;;;;;;;;;;;27.36;nan;100521.09;5043094;28;19921;-74
2021/09/04 11:37:33;;;;;;;;;;;;;;;27.28;nan;100518.88;5043526;28;20165;-74
2021/09/04 11:40:09;;;;;;;;;;;;;;;27.39;nan;100517.00;5034632;28;19924;-74
2021/09/04 11:42:44;;;;;;;;;;;;;;;27.31;nan;100521.88;5015184;28;19917;-74
2021/09/04 11:45:10;;;;;;;;;;;;;;;27.18;nan;100516.91;5031194;28;19917;-74
2021/09/04 11:47:37;;;;;;;;;;;;;;;27.11;nan;100519.03;5019371;28;19932;-74